Ellenville, New York
Current Conditions -  °F | °C
As of 8:54 PM on Wednesday 26 Nov 2014 (Local Time) from KMGJ Reporting Station
Overcast Overcast  
Wind Chill: -1°   Ceiling: 2300
Heat Index:   Visibility: 9mi
Dew Point: -1°   Wind: 5mph
Humidity: 89%   Direction: 360°N
Pressure: 29.84"   Gusts: NA
Location:  41.72°N, 74.4°W
Report Text: KMGJ 270154Z AUTO 36004KT 9SM FEW017 BKN023 OVC028 01/M01 A2984 RMK AO2 SNE51 SLP107 P0001 T00111006 TSNO $
Loading
Personal Weather Stations






























Interactive Weather Map New forecast layout! Learn more

10-Day Weather Forecast

Advertisements
Track Severe Weather on mobile